sensor_id;sensor_type;location;lat;lon;timestamp;P1;durP1;ratioP1;P2;durP2;ratioP2
73337;SDS011;61575;49.908;35.556;2023-06-05T00:02:00;1.65;;;0.70;;
73337;SDS011;61575;49.908;35.556;2023-06-05T00:05:02;1.27;;;0.60;;
73337;SDS011;61575;49.908;35.556;2023-06-05T00:08:05;1.52;;;0.70;;
73337;SDS011;61575;49.908;35.556;2023-06-05T00:11:06;1.38;;;0.63;;
73337;SDS011;61575;49.908;35.556;2023-06-05T00:14:09;2.42;;;0.77;;
73337;SDS011;61575;49.908;35.556;2023-06-05T00:17:11;2.07;;;0.80;;
73337;SDS011;61575;49.908;35.556;2023-06-05T00:20:13;2.30;;;0.90;;
73337;SDS011;61575;49.908;35.556;2023-06-05T00:23:15;1.55;;;0.63;;
73337;SDS011;61575;49.908;35.556;2023-06-05T00:26:17;1.48;;;0.80;;
73337;SDS011;61575;49.908;35.556;2023-06-05T00:29:20;1.67;;;0.80;;
73337;SDS011;61575;49.908;35.556;2023-06-05T00:32:21;2.05;;;0.88;;
73337;SDS011;61575;49.908;35.556;2023-06-05T00:35:23;1.63;;;0.80;;
73337;SDS011;61575;49.908;35.556;2023-06-05T00:38:26;2.17;;;0.70;;
73337;SDS011;61575;49.908;35.556;2023-06-05T00:41:28;3.00;;;0.95;;
73337;SDS011;61575;49.908;35.556;2023-06-05T00:44:30;1.23;;;0.80;;
73337;SDS011;61575;49.908;35.556;2023-06-05T00:47:32;1.75;;;0.80;;
73337;SDS011;61575;49.908;35.556;2023-06-05T00:50:35;1.27;;;0.60;;
73337;SDS011;61575;49.908;35.556;2023-06-05T00:56:41;1.80;;;0.80;;
73337;SDS011;61575;49.908;35.556;2023-06-05T00:59:44;1.65;;;0.80;;
73337;SDS011;61575;49.908;35.556;2023-06-05T01:02:47;1.63;;;0.70;;
73337;SDS011;61575;49.908;35.556;2023-06-05T01:05:49;1.52;;;0.60;;
73337;SDS011;61575;49.908;35.556;2023-06-05T01:08:51;2.20;;;0.90;;
73337;SDS011;61575;49.908;35.556;2023-06-05T01:12:03;2.25;;;0.80;;
73337;SDS011;61575;49.908;35.556;2023-06-05T01:15:07;2.33;;;0.90;;
73337;SDS011;61575;49.908;35.556;2023-06-05T01:18:10;1.45;;;0.70;;
73337;SDS011;61575;49.908;35.556;2023-06-05T01:21:12;2.57;;;0.90;;
73337;SDS011;61575;49.908;35.556;2023-06-05T01:24:15;3.97;;;1.00;;
73337;SDS011;61575;49.908;35.556;2023-06-05T01:27:18;1.50;;;0.70;;
73337;SDS011;61575;49.908;35.556;2023-06-05T01:30:46;2.38;;;0.80;;
73337;SDS011;61575;49.908;35.556;2023-06-05T01:34:03;2.10;;;0.80;;
73337;SDS011;61575;49.908;35.556;2023-06-05T01:37:11;1.73;;;0.80;;
73337;SDS011;61575;49.908;35.556;2023-06-05T01:40:21;2.00;;;0.90;;
73337;SDS011;61575;49.908;35.556;2023-06-05T01:43:26;2.40;;;0.73;;
73337;SDS011;61575;49.908;35.556;2023-06-05T01:46:28;2.40;;;0.85;;
73337;SDS011;61575;49.908;35.556;2023-06-05T01:49:30;1.50;;;0.90;;
73337;SDS011;61575;49.908;35.556;2023-06-05T01:52:33;3.08;;;1.02;;
73337;SDS011;61575;49.908;35.556;2023-06-05T01:55:36;2.28;;;1.00;;
73337;SDS011;61575;49.908;35.556;2023-06-05T01:58:41;2.15;;;0.95;;
73337;SDS011;61575;49.908;35.556;2023-06-05T02:01:42;2.70;;;0.90;;
73337;SDS011;61575;49.908;35.556;2023-06-05T02:07:49;1.98;;;0.73;;
73337;SDS011;61575;49.908;35.556;2023-06-05T02:10:59;1.30;;;0.73;;
73337;SDS011;61575;49.908;35.556;2023-06-05T02:14:04;1.13;;;0.68;;
73337;SDS011;61575;49.908;35.556;2023-06-05T02:17:10;2.92;;;0.90;;
73337;SDS011;61575;49.908;35.556;2023-06-05T02:20:15;2.90;;;0.80;;
73337;SDS011;61575;49.908;35.556;2023-06-05T02:23:17;1.80;;;0.87;;
73337;SDS011;61575;49.908;35.556;2023-06-05T02:26:19;3.15;;;0.95;;
73337;SDS011;61575;49.908;35.556;2023-06-05T02:29:21;2.28;;;0.98;;
73337;SDS011;61575;49.908;35.556;2023-06-05T02:32:24;2.42;;;0.80;;
73337;SDS011;61575;49.908;35.556;2023-06-05T02:35:30;3.53;;;1.00;;
73337;SDS011;61575;49.908;35.556;2023-06-05T02:38:32;2.42;;;1.00;;
73337;SDS011;61575;49.908;35.556;2023-06-05T02:41:35;1.80;;;0.70;;
73337;SDS011;61575;49.908;35.556;2023-06-05T02:44:38;1.83;;;0.85;;
73337;SDS011;61575;49.908;35.556;2023-06-05T02:47:40;2.17;;;1.00;;
73337;SDS011;61575;49.908;35.556;2023-06-05T02:50:42;2.53;;;1.00;;
73337;SDS011;61575;49.908;35.556;2023-06-05T02:56:50;3.25;;;0.98;;
73337;SDS011;61575;49.908;35.556;2023-06-05T02:59:53;2.17;;;0.95;;
73337;SDS011;61575;49.908;35.556;2023-06-05T03:02:57;2.72;;;0.90;;
73337;SDS011;61575;49.908;35.556;2023-06-05T03:06:04;2.60;;;0.98;;
73337;SDS011;61575;49.908;35.556;2023-06-05T03:09:08;2.03;;;0.93;;
73337;SDS011;61575;49.908;35.556;2023-06-05T03:12:10;2.03;;;0.70;;
73337;SDS011;61575;49.908;35.556;2023-06-05T03:15:12;2.47;;;1.13;;
73337;SDS011;61575;49.908;35.556;2023-06-05T03:18:16;2.97;;;1.20;;
73337;SDS011;61575;49.908;35.556;2023-06-05T03:21:18;3.27;;;1.20;;
73337;SDS011;61575;49.908;35.556;2023-06-05T03:24:21;3.33;;;1.25;;
73337;SDS011;61575;49.908;35.556;2023-06-05T03:27:31;3.35;;;1.00;;
73337;SDS011;61575;49.908;35.556;2023-06-05T03:30:33;3.05;;;1.15;;
73337;SDS011;61575;49.908;35.556;2023-06-05T03:33:36;2.28;;;1.20;;
73337;SDS011;61575;49.908;35.556;2023-06-05T03:36:38;2.83;;;1.10;;
73337;SDS011;61575;49.908;35.556;2023-06-05T03:39:44;3.58;;;1.50;;
73337;SDS011;61575;49.908;35.556;2023-06-05T03:42:46;4.25;;;1.30;;
73337;SDS011;61575;49.908;35.556;2023-06-05T03:45:48;3.53;;;1.40;;
73337;SDS011;61575;49.908;35.556;2023-06-05T03:48:52;4.45;;;1.52;;
73337;SDS011;61575;49.908;35.556;2023-06-05T03:52:02;4.45;;;1.52;;
73337;SDS011;61575;49.908;35.556;2023-06-05T03:55:05;4.10;;;1.80;;
73337;SDS011;61575;49.908;35.556;2023-06-05T03:58:14;3.67;;;1.40;;
73337;SDS011;61575;49.908;35.556;2023-06-05T04:01:20;3.88;;;1.40;;
73337;SDS011;61575;49.908;35.556;2023-06-05T04:04:22;5.32;;;1.60;;
73337;SDS011;61575;49.908;35.556;2023-06-05T04:07:25;4.20;;;1.42;;
73337;SDS011;61575;49.908;35.556;2023-06-05T04:10:27;4.00;;;1.77;;
73337;SDS011;61575;49.908;35.556;2023-06-05T04:13:29;3.97;;;1.60;;
73337;SDS011;61575;49.908;35.556;2023-06-05T04:16:31;3.97;;;1.40;;
73337;SDS011;61575;49.908;35.556;2023-06-05T04:19:35;3.55;;;1.40;;
73337;SDS011;61575;49.908;35.556;2023-06-05T04:22:37;2.73;;;1.23;;
73337;SDS011;61575;49.908;35.556;2023-06-05T04:25:39;2.87;;;1.10;;
73337;SDS011;61575;49.908;35.556;2023-06-05T04:28:47;3.30;;;1.30;;
73337;SDS011;61575;49.908;35.556;2023-06-05T04:31:52;2.83;;;0.98;;
73337;SDS011;61575;49.908;35.556;2023-06-05T04:37:57;2.38;;;1.00;;
73337;SDS011;61575;49.908;35.556;2023-06-05T04:40:59;3.00;;;1.10;;
73337;SDS011;61575;49.908;35.556;2023-06-05T04:44:01;2.70;;;1.00;;
73337;SDS011;61575;49.908;35.556;2023-06-05T04:47:05;2.63;;;1.02;;
73337;SDS011;61575;49.908;35.556;2023-06-05T04:50:08;2.75;;;1.00;;
73337;SDS011;61575;49.908;35.556;2023-06-05T04:53:13;3.38;;;1.13;;
73337;SDS011;61575;49.908;35.556;2023-06-05T04:56:19;2.53;;;0.82;;
73337;SDS011;61575;49.908;35.556;2023-06-05T04:59:23;1.88;;;0.93;;
73337;SDS011;61575;49.908;35.556;2023-06-05T05:02:25;2.30;;;1.10;;
73337;SDS011;61575;49.908;35.556;2023-06-05T05:05:28;3.53;;;1.00;;
73337;SDS011;61575;49.908;35.556;2023-06-05T05:08:31;1.65;;;0.70;;
73337;SDS011;61575;49.908;35.556;2023-06-05T05:14:35;1.77;;;0.80;;
73337;SDS011;61575;49.908;35.556;2023-06-05T05:17:37;1.70;;;0.82;;
73337;SDS011;61575;49.908;35.556;2023-06-05T05:20:39;1.95;;;0.88;;
73337;SDS011;61575;49.908;35.556;2023-06-05T05:23:42;2.47;;;1.02;;
73337;SDS011;61575;49.908;35.556;2023-06-05T05:26:45;2.78;;;1.00;;
73337;SDS011;61575;49.908;35.556;2023-06-05T05:29:48;1.67;;;0.70;;
73337;SDS011;61575;49.908;35.556;2023-06-05T05:32:51;1.88;;;0.75;;
73337;SDS011;61575;49.908;35.556;2023-06-05T05:35:54;1.48;;;0.70;;
73337;SDS011;61575;49.908;35.556;2023-06-05T05:41:58;2.42;;;0.80;;
73337;SDS011;61575;49.908;35.556;2023-06-05T05:45:02;2.60;;;0.80;;
73337;SDS011;61575;49.908;35.556;2023-06-05T05:48:04;0.98;;;0.60;;
73337;SDS011;61575;49.908;35.556;2023-06-05T05:51:06;1.80;;;0.60;;
73337;SDS011;61575;49.908;35.556;2023-06-05T05:57:11;0.77;;;0.52;;
73337;SDS011;61575;49.908;35.556;2023-06-05T06:00:13;1.25;;;0.60;;
73337;SDS011;61575;49.908;35.556;2023-06-05T06:06:18;2.08;;;0.80;;
73337;SDS011;61575;49.908;35.556;2023-06-05T06:09:19;1.38;;;0.63;;
73337;SDS011;61575;49.908;35.556;2023-06-05T06:12:21;1.35;;;0.68;;
73337;SDS011;61575;49.908;35.556;2023-06-05T06:18:25;2.07;;;0.70;;
73337;SDS011;61575;49.908;35.556;2023-06-05T06:21:27;2.03;;;0.80;;
73337;SDS011;61575;49.908;35.556;2023-06-05T06:24:29;1.27;;;0.68;;
73337;SDS011;61575;49.908;35.556;2023-06-05T06:27:31;1.98;;;0.88;;
73337;SDS011;61575;49.908;35.556;2023-06-05T06:30:36;1.50;;;0.70;;
73337;SDS011;61575;49.908;35.556;2023-06-05T06:33:38;3.03;;;1.10;;
73337;SDS011;61575;49.908;35.556;2023-06-05T06:36:40;3.63;;;0.80;;
73337;SDS011;61575;49.908;35.556;2023-06-05T06:39:42;2.33;;;0.93;;
73337;SDS011;61575;49.908;35.556;2023-06-05T06:42:44;2.72;;;0.88;;
73337;SDS011;61575;49.908;35.556;2023-06-05T06:46:13;1.63;;;0.70;;
73337;SDS011;61575;49.908;35.556;2023-06-05T06:49:14;1.27;;;0.70;;
73337;SDS011;61575;49.908;35.556;2023-06-05T06:52:17;1.50;;;0.75;;
73337;SDS011;61575;49.908;35.556;2023-06-05T06:55:25;1.95;;;0.63;;
73337;SDS011;61575;49.908;35.556;2023-06-05T07:01:29;2.28;;;0.90;;
73337;SDS011;61575;49.908;35.556;2023-06-05T07:04:31;1.55;;;0.80;;
73337;SDS011;61575;49.908;35.556;2023-06-05T07:07:33;2.47;;;0.90;;
73337;SDS011;61575;49.908;35.556;2023-06-05T07:10:36;1.88;;;0.80;;
73337;SDS011;61575;49.908;35.556;2023-06-05T07:13:38;1.77;;;0.70;;
73337;SDS011;61575;49.908;35.556;2023-06-05T07:16:40;1.48;;;0.60;;
73337;SDS011;61575;49.908;35.556;2023-06-05T07:19:42;0.82;;;0.50;;
73337;SDS011;61575;49.908;35.556;2023-06-05T07:22:43;2.00;;;0.82;;
73337;SDS011;61575;49.908;35.556;2023-06-05T07:25:47;2.08;;;0.77;;
73337;SDS011;61575;49.908;35.556;2023-06-05T07:28:49;2.67;;;0.68;;
73337;SDS011;61575;49.908;35.556;2023-06-05T07:31:52;1.83;;;0.80;;
73337;SDS011;61575;49.908;35.556;2023-06-05T07:34:55;3.15;;;0.88;;
73337;SDS011;61575;49.908;35.556;2023-06-05T07:37:58;2.83;;;0.85;;
73337;SDS011;61575;49.908;35.556;2023-06-05T07:41:00;2.40;;;1.02;;
73337;SDS011;61575;49.908;35.556;2023-06-05T07:44:03;2.47;;;0.80;;
73337;SDS011;61575;49.908;35.556;2023-06-05T07:47:05;3.45;;;0.90;;
73337;SDS011;61575;49.908;35.556;2023-06-05T07:50:07;1.75;;;0.80;;
73337;SDS011;61575;49.908;35.556;2023-06-05T07:56:11;1.80;;;0.70;;
73337;SDS011;61575;49.908;35.556;2023-06-05T07:59:18;1.58;;;0.70;;
73337;SDS011;61575;49.908;35.556;2023-06-05T08:02:26;2.15;;;0.50;;
73337;SDS011;61575;49.908;35.556;2023-06-05T08:05:28;2.00;;;0.98;;
73337;SDS011;61575;49.908;35.556;2023-06-05T08:08:31;1.52;;;0.70;;
73337;SDS011;61575;49.908;35.556;2023-06-05T08:11:32;2.03;;;0.70;;
73337;SDS011;61575;49.908;35.556;2023-06-05T08:14:34;1.70;;;0.80;;
73337;SDS011;61575;49.908;35.556;2023-06-05T08:17:38;2.88;;;0.70;;
73337;SDS011;61575;49.908;35.556;2023-06-05T08:20:40;2.45;;;0.80;;
73337;SDS011;61575;49.908;35.556;2023-06-05T08:23:42;2.20;;;1.00;;
73337;SDS011;61575;49.908;35.556;2023-06-05T08:26:44;3.00;;;0.90;;
73337;SDS011;61575;49.908;35.556;2023-06-05T08:29:46;1.77;;;0.80;;
73337;SDS011;61575;49.908;35.556;2023-06-05T08:32:47;1.65;;;0.80;;
73337;SDS011;61575;49.908;35.556;2023-06-05T08:35:49;1.63;;;0.63;;
73337;SDS011;61575;49.908;35.556;2023-06-05T08:38:51;1.20;;;0.60;;
73337;SDS011;61575;49.908;35.556;2023-06-05T08:41:53;1.40;;;0.70;;
73337;SDS011;61575;49.908;35.556;2023-06-05T08:44:57;2.10;;;0.80;;
73337;SDS011;61575;49.908;35.556;2023-06-05T08:48:04;2.35;;;0.93;;
73337;SDS011;61575;49.908;35.556;2023-06-05T08:51:09;1.65;;;0.70;;
73337;SDS011;61575;49.908;35.556;2023-06-05T08:54:13;8.15;;;1.20;;
73337;SDS011;61575;49.908;35.556;2023-06-05T08:57:17;1.50;;;0.88;;
73337;SDS011;61575;49.908;35.556;2023-06-05T09:00:19;2.03;;;0.70;;
73337;SDS011;61575;49.908;35.556;2023-06-05T09:03:22;2.67;;;0.80;;
73337;SDS011;61575;49.908;35.556;2023-06-05T09:06:25;2.47;;;1.10;;
73337;SDS011;61575;49.908;35.556;2023-06-05T09:09:29;2.03;;;0.80;;
73337;SDS011;61575;49.908;35.556;2023-06-05T09:12:34;1.33;;;0.63;;
73337;SDS011;61575;49.908;35.556;2023-06-05T09:15:54;1.63;;;0.80;;
73337;SDS011;61575;49.908;35.556;2023-06-05T09:18:56;1.10;;;0.60;;
73337;SDS011;61575;49.908;35.556;2023-06-05T09:21:58;1.70;;;0.70;;
73337;SDS011;61575;49.908;35.556;2023-06-05T09:25:00;1.70;;;0.65;;
73337;SDS011;61575;49.908;35.556;2023-06-05T09:28:06;1.05;;;0.60;;
73337;SDS011;61575;49.908;35.556;2023-06-05T09:31:08;1.73;;;0.75;;
73337;SDS011;61575;49.908;35.556;2023-06-05T09:34:19;2.20;;;0.80;;
73337;SDS011;61575;49.908;35.556;2023-06-05T09:37:36;3.00;;;0.60;;
73337;SDS011;61575;49.908;35.556;2023-06-05T09:40:39;1.48;;;0.80;;
73337;SDS011;61575;49.908;35.556;2023-06-05T09:43:42;8.32;;;1.70;;
73337;SDS011;61575;49.908;35.556;2023-06-05T09:49:59;1.15;;;0.70;;
73337;SDS011;61575;49.908;35.556;2023-06-05T09:53:02;1.42;;;0.70;;
73337;SDS011;61575;49.908;35.556;2023-06-05T09:56:04;1.75;;;0.80;;
73337;SDS011;61575;49.908;35.556;2023-06-05T09:59:08;1.17;;;0.68;;
73337;SDS011;61575;49.908;35.556;2023-06-05T10:02:14;2.10;;;0.70;;
73337;SDS011;61575;49.908;35.556;2023-06-05T10:05:19;2.67;;;0.60;;
73337;SDS011;61575;49.908;35.556;2023-06-05T10:08:24;1.27;;;0.60;;
73337;SDS011;61575;49.908;35.556;2023-06-05T10:11:26;1.65;;;0.85;;
73337;SDS011;61575;49.908;35.556;2023-06-05T10:14:28;2.50;;;0.90;;
73337;SDS011;61575;49.908;35.556;2023-06-05T10:17:30;2.15;;;1.00;;
73337;SDS011;61575;49.908;35.556;2023-06-05T10:20:33;1.83;;;0.70;;
73337;SDS011;61575;49.908;35.556;2023-06-05T10:23:37;1.33;;;0.68;;
73337;SDS011;61575;49.908;35.556;2023-06-05T10:39:49;1.85;;;0.60;;
73337;SDS011;61575;49.908;35.556;2023-06-05T10:42:52;0.98;;;0.57;;
73337;SDS011;61575;49.908;35.556;2023-06-05T10:45:54;1.63;;;0.70;;
73337;SDS011;61575;49.908;35.556;2023-06-05T10:49:15;1.63;;;0.70;;
73337;SDS011;61575;49.908;35.556;2023-06-05T10:52:58;1.23;;;0.80;;
73337;SDS011;61575;49.908;35.556;2023-06-05T10:55:54;2.17;;;0.70;;
73337;SDS011;61575;49.908;35.556;2023-06-05T10:59:11;0.73;;;0.50;;
73337;SDS011;61575;49.908;35.556;2023-06-05T11:05:21;2.00;;;0.70;;
73337;SDS011;61575;49.908;35.556;2023-06-05T11:08:23;1.38;;;0.63;;
73337;SDS011;61575;49.908;35.556;2023-06-05T11:11:25;1.90;;;0.75;;
73337;SDS011;61575;49.908;35.556;2023-06-05T11:14:43;2.63;;;1.05;;
73337;SDS011;61575;49.908;35.556;2023-06-05T11:17:49;1.45;;;0.70;;
73337;SDS011;61575;49.908;35.556;2023-06-05T11:20:52;1.55;;;0.77;;
73337;SDS011;61575;49.908;35.556;2023-06-05T11:30:45;1.13;;;0.60;;
73337;SDS011;61575;49.908;35.556;2023-06-05T11:33:50;1.83;;;0.75;;
73337;SDS011;61575;49.908;35.556;2023-06-05T11:36:52;1.45;;;0.70;;
73337;SDS011;61575;49.908;35.556;2023-06-05T11:39:55;3.00;;;0.90;;
73337;SDS011;61575;49.908;35.556;2023-06-05T11:43:01;2.25;;;0.80;;
73337;SDS011;61575;49.908;35.556;2023-06-05T11:46:06;2.00;;;0.88;;
73337;SDS011;61575;49.908;35.556;2023-06-05T11:49:22;2.05;;;0.90;;
73337;SDS011;61575;49.908;35.556;2023-06-05T11:52:26;4.38;;;0.90;;
73337;SDS011;61575;49.908;35.556;2023-06-05T11:55:28;4.18;;;1.00;;
73337;SDS011;61575;49.908;35.556;2023-06-05T11:58:44;2.42;;;1.00;;
73337;SDS011;61575;49.908;35.556;2023-06-05T12:01:46;3.78;;;0.82;;
73337;SDS011;61575;49.908;35.556;2023-06-05T12:04:51;1.92;;;0.88;;
73337;SDS011;61575;49.908;35.556;2023-06-05T12:07:54;3.95;;;2.10;;
73337;SDS011;61575;49.908;35.556;2023-06-05T12:10:57;2.50;;;1.33;;
73337;SDS011;61575;49.908;35.556;2023-06-05T12:13:59;1.83;;;0.80;;
73337;SDS011;61575;49.908;35.556;2023-06-05T12:20:09;3.63;;;1.15;;
73337;SDS011;61575;49.908;35.556;2023-06-05T12:23:17;1.55;;;0.77;;
73337;SDS011;61575;49.908;35.556;2023-06-05T12:26:20;2.40;;;0.90;;
73337;SDS011;61575;49.908;35.556;2023-06-05T12:29:23;2.08;;;0.90;;
73337;SDS011;61575;49.908;35.556;2023-06-05T12:32:27;2.33;;;1.05;;
73337;SDS011;61575;49.908;35.556;2023-06-05T12:35:29;4.18;;;0.85;;
73337;SDS011;61575;49.908;35.556;2023-06-05T12:38:37;2.60;;;0.75;;
73337;SDS011;61575;49.908;35.556;2023-06-05T12:41:40;1.98;;;0.80;;
73337;SDS011;61575;49.908;35.556;2023-06-05T12:44:42;2.00;;;0.88;;
73337;SDS011;61575;49.908;35.556;2023-06-05T12:47:44;2.20;;;0.85;;
73337;SDS011;61575;49.908;35.556;2023-06-05T12:53:47;1.70;;;0.80;;
73337;SDS011;61575;49.908;35.556;2023-06-05T12:56:49;1.77;;;0.80;;
73337;SDS011;61575;49.908;35.556;2023-06-05T12:59:52;2.20;;;1.10;;
73337;SDS011;61575;49.908;35.556;2023-06-05T13:02:57;2.72;;;0.95;;
73337;SDS011;61575;49.908;35.556;2023-06-05T13:05:59;2.17;;;0.82;;
73337;SDS011;61575;49.908;35.556;2023-06-05T13:12:05;1.55;;;0.70;;
73337;SDS011;61575;49.908;35.556;2023-06-05T13:18:09;1.83;;;0.80;;
73337;SDS011;61575;49.908;35.556;2023-06-05T13:21:11;2.50;;;0.90;;
73337;SDS011;61575;49.908;35.556;2023-06-05T13:24:13;1.85;;;0.70;;
73337;SDS011;61575;49.908;35.556;2023-06-05T13:27:17;2.00;;;0.77;;
73337;SDS011;61575;49.908;35.556;2023-06-05T13:30:21;1.52;;;0.73;;
73337;SDS011;61575;49.908;35.556;2023-06-05T13:33:23;2.05;;;0.70;;
73337;SDS011;61575;49.908;35.556;2023-06-05T13:36:26;1.95;;;0.85;;
73337;SDS011;61575;49.908;35.556;2023-06-05T13:42:30;2.88;;;0.90;;
73337;SDS011;61575;49.908;35.556;2023-06-05T13:45:32;1.38;;;0.70;;
73337;SDS011;61575;49.908;35.556;2023-06-05T13:48:34;1.23;;;0.70;;
73337;SDS011;61575;49.908;35.556;2023-06-05T13:51:39;2.25;;;0.90;;
73337;SDS011;61575;49.908;35.556;2023-06-05T13:54:41;1.75;;;0.77;;
73337;SDS011;61575;49.908;35.556;2023-06-05T13:57:45;1.50;;;0.63;;
73337;SDS011;61575;49.908;35.556;2023-06-05T14:00:46;1.27;;;0.70;;
73337;SDS011;61575;49.908;35.556;2023-06-05T14:03:50;1.73;;;0.70;;
73337;SDS011;61575;49.908;35.556;2023-06-05T14:06:52;1.52;;;0.70;;
73337;SDS011;61575;49.908;35.556;2023-06-05T14:09:59;1.95;;;0.77;;
73337;SDS011;61575;49.908;35.556;2023-06-05T14:13:01;2.90;;;0.82;;
73337;SDS011;61575;49.908;35.556;2023-06-05T14:16:03;1.45;;;0.70;;
73337;SDS011;61575;49.908;35.556;2023-06-05T14:22:08;2.80;;;0.95;;
73337;SDS011;61575;49.908;35.556;2023-06-05T14:25:10;0.85;;;0.55;;
73337;SDS011;61575;49.908;35.556;2023-06-05T14:28:12;2.53;;;0.70;;
73337;SDS011;61575;49.908;35.556;2023-06-05T14:31:15;1.42;;;0.70;;
73337;SDS011;61575;49.908;35.556;2023-06-05T14:34:16;1.67;;;0.70;;
73337;SDS011;61575;49.908;35.556;2023-06-05T14:37:18;1.25;;;0.65;;
73337;SDS011;61575;49.908;35.556;2023-06-05T14:40:20;1.60;;;0.60;;
73337;SDS011;61575;49.908;35.556;2023-06-05T14:43:22;1.40;;;0.70;;
73337;SDS011;61575;49.908;35.556;2023-06-05T14:49:26;2.08;;;0.77;;
73337;SDS011;61575;49.908;35.556;2023-06-05T14:52:28;1.50;;;0.80;;
73337;SDS011;61575;49.908;35.556;2023-06-05T14:55:30;1.65;;;0.70;;
73337;SDS011;61575;49.908;35.556;2023-06-05T14:58:32;1.73;;;0.70;;
73337;SDS011;61575;49.908;35.556;2023-06-05T15:01:34;1.45;;;0.70;;
73337;SDS011;61575;49.908;35.556;2023-06-05T15:04:36;1.45;;;0.60;;
73337;SDS011;61575;49.908;35.556;2023-06-05T15:10:41;3.03;;;0.70;;
73337;SDS011;61575;49.908;35.556;2023-06-05T15:13:43;1.70;;;0.65;;
73337;SDS011;61575;49.908;35.556;2023-06-05T15:16:45;2.15;;;0.95;;
73337;SDS011;61575;49.908;35.556;2023-06-05T15:19:47;1.55;;;0.63;;
73337;SDS011;61575;49.908;35.556;2023-06-05T15:22:49;1.67;;;0.70;;
73337;SDS011;61575;49.908;35.556;2023-06-05T15:26:08;1.45;;;0.65;;
73337;SDS011;61575;49.908;35.556;2023-06-05T15:29:09;2.25;;;0.70;;
73337;SDS011;61575;49.908;35.556;2023-06-05T15:32:11;1.60;;;0.60;;
73337;SDS011;61575;49.908;35.556;2023-06-05T15:35:18;3.33;;;0.88;;
73337;SDS011;61575;49.908;35.556;2023-06-05T15:38:21;1.67;;;0.70;;
73337;SDS011;61575;49.908;35.556;2023-06-05T15:41:23;1.23;;;0.60;;
73337;SDS011;61575;49.908;35.556;2023-06-05T15:44:26;1.23;;;0.65;;
73337;SDS011;61575;49.908;35.556;2023-06-05T15:47:28;2.10;;;0.75;;
73337;SDS011;61575;49.908;35.556;2023-06-05T15:50:31;2.05;;;0.85;;
73337;SDS011;61575;49.908;35.556;2023-06-05T15:53:36;0.98;;;0.60;;
73337;SDS011;61575;49.908;35.556;2023-06-05T15:57:00;2.72;;;0.80;;
73337;SDS011;61575;49.908;35.556;2023-06-05T16:00:03;1.73;;;0.80;;
73337;SDS011;61575;49.908;35.556;2023-06-05T16:03:07;2.47;;;0.73;;
73337;SDS011;61575;49.908;35.556;2023-06-05T16:06:10;1.58;;;0.60;;
73337;SDS011;61575;49.908;35.556;2023-06-05T16:09:12;1.83;;;0.80;;
73337;SDS011;61575;49.908;35.556;2023-06-05T16:12:14;1.92;;;0.60;;
73337;SDS011;61575;49.908;35.556;2023-06-05T16:15:15;1.48;;;0.68;;
73337;SDS011;61575;49.908;35.556;2023-06-05T16:18:17;1.52;;;0.70;;
73337;SDS011;61575;49.908;35.556;2023-06-05T16:21:19;2.40;;;0.80;;
73337;SDS011;61575;49.908;35.556;2023-06-05T16:24:21;1.25;;;0.63;;
73337;SDS011;61575;49.908;35.556;2023-06-05T16:27:23;1.02;;;0.60;;
73337;SDS011;61575;49.908;35.556;2023-06-05T16:30:25;2.55;;;0.68;;
73337;SDS011;61575;49.908;35.556;2023-06-05T16:33:27;1.45;;;0.70;;
73337;SDS011;61575;49.908;35.556;2023-06-05T16:36:29;1.55;;;0.65;;
73337;SDS011;61575;49.908;35.556;2023-06-05T16:39:31;1.65;;;0.73;;
73337;SDS011;61575;49.908;35.556;2023-06-05T16:42:32;1.02;;;0.50;;
73337;SDS011;61575;49.908;35.556;2023-06-05T16:45:34;1.55;;;0.68;;
73337;SDS011;61575;49.908;35.556;2023-06-05T16:48:38;5.90;;;1.00;;
73337;SDS011;61575;49.908;35.556;2023-06-05T16:51:40;1.65;;;0.70;;
73337;SDS011;61575;49.908;35.556;2023-06-05T16:54:42;1.02;;;0.57;;
73337;SDS011;61575;49.908;35.556;2023-06-05T16:57:44;1.85;;;0.70;;
73337;SDS011;61575;49.908;35.556;2023-06-05T17:00:47;2.00;;;0.60;;
73337;SDS011;61575;49.908;35.556;2023-06-05T17:03:49;1.63;;;0.70;;
73337;SDS011;61575;49.908;35.556;2023-06-05T17:06:54;1.98;;;0.65;;
73337;SDS011;61575;49.908;35.556;2023-06-05T17:12:59;3.40;;;0.88;;
73337;SDS011;61575;49.908;35.556;2023-06-05T17:16:03;2.10;;;0.70;;
73337;SDS011;61575;49.908;35.556;2023-06-05T17:19:05;1.75;;;0.70;;
73337;SDS011;61575;49.908;35.556;2023-06-05T17:22:06;1.83;;;0.70;;
73337;SDS011;61575;49.908;35.556;2023-06-05T17:25:08;2.10;;;0.98;;
73337;SDS011;61575;49.908;35.556;2023-06-05T17:28:13;3.22;;;0.82;;
73337;SDS011;61575;49.908;35.556;2023-06-05T17:31:15;2.35;;;0.70;;
73337;SDS011;61575;49.908;35.556;2023-06-05T17:34:18;1.90;;;0.70;;
73337;SDS011;61575;49.908;35.556;2023-06-05T17:37:21;1.88;;;0.80;;
73337;SDS011;61575;49.908;35.556;2023-06-05T17:40:23;3.40;;;1.00;;
73337;SDS011;61575;49.908;35.556;2023-06-05T17:43:25;4.50;;;1.17;;
73337;SDS011;61575;49.908;35.556;2023-06-05T17:46:26;2.85;;;1.00;;
73337;SDS011;61575;49.908;35.556;2023-06-05T17:49:28;3.22;;;0.90;;
73337;SDS011;61575;49.908;35.556;2023-06-05T17:52:30;2.03;;;0.82;;
73337;SDS011;61575;49.908;35.556;2023-06-05T17:55:32;2.97;;;1.05;;
73337;SDS011;61575;49.908;35.556;2023-06-05T17:58:34;3.97;;;1.08;;
73337;SDS011;61575;49.908;35.556;2023-06-05T18:01:36;3.85;;;1.67;;
73337;SDS011;61575;49.908;35.556;2023-06-05T18:04:38;6.88;;;1.10;;
73337;SDS011;61575;49.908;35.556;2023-06-05T18:07:40;3.15;;;1.00;;
73337;SDS011;61575;49.908;35.556;2023-06-05T18:10:43;2.58;;;1.00;;
73337;SDS011;61575;49.908;35.556;2023-06-05T18:13:45;3.97;;;1.23;;
73337;SDS011;61575;49.908;35.556;2023-06-05T18:16:47;3.47;;;1.20;;
73337;SDS011;61575;49.908;35.556;2023-06-05T18:19:49;3.15;;;1.30;;
73337;SDS011;61575;49.908;35.556;2023-06-05T18:22:51;4.28;;;1.45;;
73337;SDS011;61575;49.908;35.556;2023-06-05T18:25:53;4.10;;;1.42;;
73337;SDS011;61575;49.908;35.556;2023-06-05T18:28:55;6.70;;;1.40;;
73337;SDS011;61575;49.908;35.556;2023-06-05T18:31:56;4.07;;;1.52;;
73337;SDS011;61575;49.908;35.556;2023-06-05T18:34:58;5.18;;;1.65;;
73337;SDS011;61575;49.908;35.556;2023-06-05T18:38:00;3.83;;;1.10;;
73337;SDS011;61575;49.908;35.556;2023-06-05T18:41:02;4.57;;;1.30;;
73337;SDS011;61575;49.908;35.556;2023-06-05T18:44:04;4.72;;;1.20;;
73337;SDS011;61575;49.908;35.556;2023-06-05T18:47:06;3.30;;;1.07;;
73337;SDS011;61575;49.908;35.556;2023-06-05T18:50:08;4.65;;;1.55;;
73337;SDS011;61575;49.908;35.556;2023-06-05T18:53:10;3.05;;;1.25;;
73337;SDS011;61575;49.908;35.556;2023-06-05T18:56:13;2.25;;;1.20;;
73337;SDS011;61575;49.908;35.556;2023-06-05T18:59:15;3.38;;;1.40;;
73337;SDS011;61575;49.908;35.556;2023-06-05T19:02:20;3.60;;;1.27;;
73337;SDS011;61575;49.908;35.556;2023-06-05T19:05:23;5.20;;;1.70;;
73337;SDS011;61575;49.908;35.556;2023-06-05T19:11:27;3.30;;;1.55;;
73337;SDS011;61575;49.908;35.556;2023-06-05T19:14:29;4.73;;;1.50;;
73337;SDS011;61575;49.908;35.556;2023-06-05T19:17:31;4.32;;;1.30;;
73337;SDS011;61575;49.908;35.556;2023-06-05T19:20:33;2.97;;;1.20;;
73337;SDS011;61575;49.908;35.556;2023-06-05T19:23:35;3.25;;;1.40;;
73337;SDS011;61575;49.908;35.556;2023-06-05T19:26:38;3.55;;;1.40;;
73337;SDS011;61575;49.908;35.556;2023-06-05T19:29:40;2.45;;;1.15;;
73337;SDS011;61575;49.908;35.556;2023-06-05T19:32:43;3.38;;;1.30;;
73337;SDS011;61575;49.908;35.556;2023-06-05T19:35:46;2.95;;;1.20;;
73337;SDS011;61575;49.908;35.556;2023-06-05T19:38:48;3.17;;;1.30;;